createdAt,value
2019-02-10T00:01:49.025Z,98959.82
2019-02-10T00:12:43.323Z,98945.05
2019-02-10T00:15:00.675Z,98941.41
2019-02-10T00:17:48.922Z,98934.14
2019-02-10T00:20:16.783Z,98925.34
2019-02-10T00:23:03.389Z,98932.94
2019-02-10T00:25:31.191Z,98934.97
2019-02-10T00:28:17.741Z,98919.91
2019-02-10T00:31:16.179Z,98919.91
2019-02-10T00:33:34.171Z,98918.08
2019-02-10T00:36:01.928Z,98905.59
2019-02-10T00:38:29.941Z,98882.66
2019-02-10T00:40:57.618Z,98882.66
2019-02-10T00:43:25.285Z,98875.18
2019-02-10T00:46:11.991Z,98869.75
2019-02-10T00:51:45.055Z,98851.70
2019-02-10T00:57:17.968Z,98838.73
2019-02-10T01:00:04.442Z,98831.34
2019-02-10T01:02:50.955Z,98831.34
2019-02-10T01:08:15.621Z,98817.19
2019-02-10T01:10:43.479Z,98809.58
2019-02-10T01:13:31.690Z,98810.08
2019-02-10T01:15:59.371Z,98800.29
2019-02-10T01:18:45.904Z,98800.29
2019-02-10T01:21:13.812Z,98805.69
2019-02-10T01:24:00.326Z,98795.64
2019-02-10T01:26:46.873Z,98781.39
2019-02-10T01:29:15.095Z,98781.39
2019-02-10T01:31:42.956Z,98768.47
2019-02-10T01:34:10.818Z,98761.33
2019-02-10T01:36:57.272Z,98750.37
2019-02-10T01:39:43.813Z,98736.28
2019-02-10T01:42:30.372Z,98724.05
2019-02-10T01:45:16.827Z,98715.11
2019-02-10T01:48:03.362Z,98715.11
2019-02-10T01:50:31.178Z,98725.59
2019-02-10T01:53:17.699Z,98718.48
2019-02-10T01:55:45.452Z,98718.48
2019-02-10T01:58:13.319Z,98716.66
2019-02-10T02:00:59.848Z,98704.28
2019-02-10T02:03:46.302Z,98703.17
2019-02-10T02:06:32.822Z,98703.17
2019-02-10T02:12:07.426Z,98686.42
2019-02-10T02:14:35.111Z,98686.42
2019-02-10T02:17:22.362Z,98684.47
2019-02-10T02:19:50.117Z,98684.47
2019-02-10T02:25:12.121Z,98654.89
2019-02-10T02:30:31.747Z,98607.45
2019-02-10T02:32:59.653Z,98607.45
2019-02-10T02:35:27.409Z,98608.56
2019-02-10T02:38:14.210Z,98596.44
2019-02-10T02:40:42.090Z,98597.13
2019-02-10T02:43:09.836Z,98597.13
2019-02-10T02:45:58.461Z,98580.62
2019-02-10T02:48:27.888Z,98574.05
2019-02-10T02:51:16.060Z,98552.06
2019-02-10T02:53:43.816Z,98552.06
2019-02-10T02:56:30.334Z,98538.69
2019-02-10T03:02:03.262Z,98526.75
2019-02-10T03:04:49.816Z,98513.16
2019-02-10T03:07:36.271Z,98500.88
2019-02-10T03:12:38.619Z,98493.41
2019-02-10T03:15:25.110Z,98484.26
2019-02-10T03:20:26.278Z,98481.48
2019-02-10T03:23:12.951Z,98470.41
2019-02-10T03:25:40.757Z,98460.33
2019-02-10T03:28:08.623Z,98452.85
2019-02-10T03:30:55.122Z,98434.34
2019-02-10T03:36:15.086Z,98419.38
2019-02-10T03:46:38.022Z,98371.65
2019-02-10T03:49:24.897Z,98371.65
2019-02-10T03:59:31.975Z,98339.66
2019-02-10T04:01:59.820Z,98339.66
2019-02-10T04:04:29.240Z,98318.91
2019-02-10T04:06:58.731Z,98318.91
2019-02-10T04:09:45.285Z,98309.94
2019-02-10T04:12:31.757Z,98290.73
2019-02-10T04:15:18.246Z,98290.73
2019-02-10T04:18:04.789Z,98271.16
2019-02-10T04:20:51.295Z,98271.16
2019-02-10T04:26:24.500Z,98262.67
2019-02-10T04:29:10.956Z,98244.66
2019-02-10T04:31:57.739Z,98234.56
2019-02-10T04:34:44.198Z,98229.78
2019-02-10T04:37:12.055Z,98229.78
2019-02-10T04:39:41.559Z,98218.56
2019-02-10T04:42:28.031Z,98207.13
2019-02-10T04:47:29.006Z,98192.45
2019-02-10T04:50:15.759Z,98175.95
2019-02-10T04:52:43.590Z,98175.95
2019-02-10T04:55:30.040Z,98152.02
2019-02-10T04:57:57.961Z,98152.02
2019-02-10T05:03:31.234Z,98128.97
2019-02-10T05:06:17.680Z,98130.12
2019-02-10T05:08:45.531Z,98130.12
2019-02-10T05:11:31.979Z,98099.58
2019-02-10T05:13:59.798Z,98102.43
2019-02-10T05:16:27.676Z,98078.97
2019-02-10T05:21:46.972Z,98051.26
2019-02-10T05:24:14.716Z,98054.08
2019-02-10T05:27:01.267Z,98024.19
2019-02-10T05:29:28.993Z,98024.19
2019-02-10T05:35:02.003Z,97976.19
2019-02-10T05:37:48.754Z,97967.13
2019-02-10T05:40:18.219Z,97967.13
2019-02-10T05:42:47.610Z,97958.54
2019-02-10T05:45:15.481Z,97945.98
2019-02-10T05:48:01.968Z,97925.86
2019-02-10T05:50:41.908Z,97928.19
2019-02-10T05:55:32.744Z,97895.18
2019-02-10T05:58:19.493Z,97893.20
2019-02-10T06:00:47.314Z,97893.20
2019-02-10T06:03:15.078Z,97871.23
2019-02-10T06:05:42.946Z,97856.87
2019-02-10T06:08:29.430Z,97855.45
2019-02-10T06:10:57.221Z,97855.45
2019-02-10T06:13:24.942Z,97815.94
2019-02-10T06:15:54.391Z,97815.94
2019-02-10T06:18:22.253Z,97823.27
2019-02-10T06:21:09.058Z,97796.98
2019-02-10T06:23:56.056Z,97799.78
2019-02-10T06:26:23.842Z,97787.24
2019-02-10T06:29:10.374Z,97787.24
2019-02-10T06:31:38.105Z,97792.36
2019-02-10T06:34:25.337Z,97780.34
2019-02-10T06:36:53.303Z,97780.34
2019-02-10T06:39:21.055Z,97769.41
2019-02-10T06:42:07.603Z,97775.56
2019-02-10T06:44:54.140Z,97758.71
2019-02-10T06:47:41.016Z,97758.71
2019-02-10T06:53:00.827Z,97758.56
2019-02-10T06:55:47.302Z,97729.09
2019-02-10T06:58:15.153Z,97729.09
2019-02-10T07:01:01.612Z,97725.62
2019-02-10T07:03:48.123Z,97711.23
2019-02-10T07:08:51.052Z,97703.47
2019-02-10T07:11:19.326Z,97694.86
2019-02-10T07:14:06.090Z,97677.14
2019-02-10T07:16:52.597Z,97683.47
2019-02-10T07:19:39.373Z,97684.97
2019-02-10T07:22:26.334Z,97659.45
2019-02-10T07:25:12.784Z,97659.45
2019-02-10T07:27:40.849Z,97667.58
2019-02-10T07:30:28.963Z,97652.49
2019-02-10T07:33:15.468Z,97621.70
2019-02-10T07:36:01.923Z,97630.80
2019-02-10T07:38:29.759Z,97617.55
2019-02-10T07:41:16.284Z,97600.16
2019-02-10T07:43:44.029Z,97600.16
2019-02-10T07:46:30.839Z,97594.39
2019-02-10T07:48:58.707Z,97588.59
2019-02-10T07:51:26.468Z,97588.59
2019-02-10T07:54:24.765Z,97577.84
2019-02-10T07:56:42.476Z,97577.84
2019-02-10T08:01:56.734Z,97550.15
2019-02-10T08:04:24.508Z,97550.15
2019-02-10T08:07:11.006Z,97535.58
2019-02-10T08:09:57.536Z,97531.06
2019-02-10T08:12:44.010Z,97519.78
2019-02-10T08:15:11.814Z,97519.78
2019-02-10T08:17:39.544Z,97518.81
2019-02-10T08:20:38.443Z,97510.17
2019-02-10T08:22:55.377Z,97508.69
2019-02-10T08:25:23.217Z,97514.97
2019-02-10T08:28:09.718Z,97508.50
2019-02-10T08:30:37.587Z,97504.69
2019-02-10T08:33:05.348Z,97501.20
2019-02-10T08:35:51.799Z,97501.20
2019-02-10T08:38:38.318Z,97486.57
2019-02-10T08:41:24.823Z,97486.57
2019-02-10T08:46:57.816Z,97476.05
2019-02-10T08:49:44.329Z,97458.55
2019-02-10T08:52:30.803Z,97458.55
2019-02-10T08:55:17.360Z,97448.56
2019-02-10T08:58:16.251Z,97448.56
2019-02-10T09:03:26.308Z,97455.10
2019-02-10T09:05:54.100Z,97455.10
2019-02-10T09:08:40.605Z,97463.70
2019-02-10T09:11:08.322Z,97447.89
2019-02-10T09:14:07.008Z,97429.75
2019-02-10T09:16:24.468Z,97415.62
2019-02-10T09:19:10.952Z,97431.34
2019-02-10T09:21:38.850Z,97444.61
2019-02-10T09:24:25.371Z,97416.66
2019-02-10T09:27:11.919Z,97405.81
2019-02-10T09:29:58.454Z,97405.81
2019-02-10T09:32:26.141Z,97427.27
2019-02-10T09:35:24.631Z,97407.36
2019-02-10T09:37:42.234Z,97411.72
2019-02-10T09:40:29.208Z,97411.80
2019-02-10T09:43:15.714Z,97427.11
2019-02-10T09:46:02.158Z,97427.11
2019-02-10T09:48:29.923Z,97421.68
2019-02-10T09:51:16.384Z,97421.86
2019-02-10T09:53:44.121Z,97434.02
2019-02-10T09:56:30.559Z,97427.23
2019-02-10T10:01:51.258Z,97450.17
2019-02-10T10:04:21.318Z,97447.72
2019-02-10T10:07:07.827Z,97447.72
2019-02-10T10:09:49.407Z,97442.94
2019-02-10T10:12:07.425Z,97430.68
2019-02-10T10:14:53.925Z,97426.58
2019-02-10T10:17:23.761Z,97420.62
2019-02-10T10:20:10.268Z,97424.77
2019-02-10T10:22:40.009Z,97424.77
2019-02-10T10:25:08.259Z,97423.13
2019-02-10T10:27:36.245Z,97411.34
2019-02-10T10:30:04.325Z,97411.34
2019-02-10T10:32:32.038Z,97416.66
2019-02-10T10:35:18.578Z,97414.32
2019-02-10T10:37:46.313Z,97403.22
2019-02-10T10:40:14.407Z,97398.23
2019-02-10T10:43:00.901Z,97394.25
2019-02-10T10:45:48.441Z,97394.25
2019-02-10T10:48:16.195Z,97391.11
2019-02-10T10:50:44.366Z,97384.12
2019-02-10T10:53:30.845Z,97379.33
2019-02-10T10:56:17.382Z,97371.37
2019-02-10T10:58:45.100Z,97371.37
2019-02-10T11:01:31.634Z,97365.42
2019-02-10T11:04:30.033Z,97360.11
2019-02-10T11:07:06.273Z,97351.14
2019-02-10T11:12:39.824Z,97348.48
2019-02-10T11:15:09.301Z,97344.98
2019-02-10T11:18:10.358Z,97333.31
2019-02-10T11:20:25.203Z,97333.31
2019-02-10T11:23:11.933Z,97326.98
2019-02-10T11:25:39.783Z,97326.98
2019-02-10T11:31:00.622Z,97328.95
2019-02-10T11:33:28.463Z,97329.47
2019-02-10T11:35:56.432Z,97324.48
2019-02-10T11:38:24.322Z,97316.20
2019-02-10T11:41:08.039Z,97307.86
2019-02-10T11:46:31.844Z,97296.39
2019-02-10T11:51:54.594Z,97285.20
2019-02-10T11:54:44.390Z,97278.52
2019-02-10T12:00:03.998Z,97265.83
2019-02-10T12:02:50.510Z,97284.20
2019-02-10T12:05:36.986Z,97284.20
2019-02-10T12:08:04.846Z,97288.50
2019-02-10T12:10:51.328Z,97278.97
2019-02-10T12:13:40.016Z,97273.02
2019-02-10T12:16:25.955Z,97273.02
2019-02-10T12:18:53.761Z,97284.52
2019-02-10T12:21:40.213Z,97268.60
2019-02-10T12:24:29.332Z,97288.65
2019-02-10T12:27:15.803Z,97303.80
2019-02-10T12:32:40.413Z,97290.39
2019-02-10T12:35:08.231Z,97280.99
2019-02-10T12:37:57.130Z,97288.02
2019-02-10T12:40:43.644Z,97288.02
2019-02-10T12:43:31.152Z,97289.04
2019-02-10T12:45:58.972Z,97289.04
2019-02-10T12:48:45.407Z,97281.61
2019-02-10T12:51:13.210Z,97281.61
2019-02-10T12:53:43.418Z,97301.52
2019-02-10T12:56:29.931Z,97295.94
2019-02-10T12:59:18.921Z,97292.14
2019-02-10T13:02:05.423Z,97292.14
2019-02-10T13:07:24.450Z,97313.62
2019-02-10T13:09:57.342Z,97300.89
2019-02-10T13:13:01.094Z,97300.89
2019-02-10T13:18:15.053Z,97304.77
2019-02-10T13:20:42.909Z,97307.02
2019-02-10T13:23:29.400Z,97307.02
2019-02-10T13:25:57.235Z,97313.82
2019-02-10T13:31:30.580Z,97318.84
2019-02-10T13:37:17.589Z,97319.39
2019-02-10T13:42:43.263Z,97339.59
2019-02-10T13:45:11.138Z,97335.42
2019-02-10T13:47:39.211Z,97332.45
2019-02-10T13:50:06.922Z,97320.88
2019-02-10T13:52:34.690Z,97326.99
2019-02-10T13:55:21.232Z,97320.55
2019-02-10T13:58:16.673Z,97318.03
2019-02-10T14:01:06.998Z,97320.36
2019-02-10T14:03:34.809Z,97329.00
2019-02-10T14:06:21.273Z,97328.64
2019-02-10T14:11:40.904Z,97337.36
2019-02-10T14:14:08.673Z,97337.36
2019-02-10T14:16:55.892Z,97338.00
2019-02-10T14:19:23.643Z,97338.00
2019-02-10T14:21:51.860Z,97337.52
2019-02-10T14:24:22.379Z,97337.52
2019-02-10T14:26:54.394Z,97331.86
2019-02-10T14:29:23.955Z,97341.34
2019-02-10T14:31:53.913Z,97337.69
2019-02-10T14:34:21.241Z,97348.48
2019-02-10T14:36:52.086Z,97343.83
2019-02-10T14:39:22.794Z,97352.78
2019-02-10T14:41:50.539Z,97348.84
2019-02-10T14:44:18.189Z,97348.84
2019-02-10T14:46:46.117Z,97353.47
2019-02-10T14:49:14.238Z,97353.47
2019-02-10T14:51:44.046Z,97347.68
2019-02-10T14:54:12.311Z,97349.49
2019-02-10T14:56:40.074Z,97342.86
2019-02-10T14:59:08.289Z,97337.08
2019-02-10T15:01:39.052Z,97356.47
2019-02-10T15:04:07.961Z,97351.17
2019-02-10T15:06:39.071Z,97342.22
2019-02-10T15:09:09.200Z,97342.22
2019-02-10T15:11:37.192Z,97336.59
2019-02-10T15:14:07.719Z,97342.86
2019-02-10T15:16:35.737Z,97351.17
2019-02-10T15:19:03.451Z,97352.17
2019-02-10T15:21:33.941Z,97352.17
2019-02-10T15:24:05.866Z,97351.20
2019-02-10T15:26:33.605Z,97364.45
2019-02-10T15:29:12.257Z,97359.83
2019-02-10T15:31:50.203Z,97359.83
2019-02-10T15:34:18.262Z,97358.37
2019-02-10T15:36:47.339Z,97358.37
2019-02-10T15:39:17.965Z,97371.63
2019-02-10T15:41:45.713Z,97381.08
2019-02-10T15:44:19.620Z,97378.42
2019-02-10T15:46:48.256Z,97378.77
2019-02-10T15:49:17.563Z,97372.00
2019-02-10T15:51:47.744Z,97372.00
2019-02-10T15:54:21.625Z,97372.14
2019-02-10T15:56:44.688Z,97372.14
2019-02-10T15:59:12.737Z,97380.43
2019-02-10T16:01:40.524Z,97386.04
2019-02-10T16:04:12.757Z,97386.04
2019-02-10T16:06:43.840Z,97388.70
2019-02-10T16:09:13.423Z,97386.55
2019-02-10T16:11:42.734Z,97388.68
2019-02-10T16:14:10.716Z,97388.68
2019-02-10T16:16:43.420Z,97402.91
2019-02-10T16:19:20.668Z,97420.30
2019-02-10T16:21:50.885Z,97392.98
2019-02-10T16:24:21.330Z,97400.75
2019-02-10T16:26:49.440Z,97400.58
2019-02-10T16:29:19.436Z,97408.19
2019-02-10T16:31:51.629Z,97414.33
2019-02-10T16:34:19.536Z,97411.83
2019-02-10T16:36:49.107Z,97407.02
2019-02-10T16:39:18.448Z,97411.17
2019-02-10T16:41:48.203Z,97417.10
2019-02-10T16:44:19.182Z,97432.98
2019-02-10T16:46:49.611Z,97415.13
2019-02-10T16:49:23.157Z,97431.52
2019-02-10T16:51:50.866Z,97433.64
2019-02-10T16:54:18.664Z,97433.64
2019-02-10T16:56:46.636Z,97449.86
2019-02-10T16:59:17.150Z,97449.86
2019-02-10T17:01:47.575Z,97469.37
2019-02-10T17:04:21.197Z,97473.64
2019-02-10T17:06:50.030Z,97479.11
2019-02-10T17:09:19.127Z,97496.43
2019-02-10T17:11:54.088Z,97502.67
2019-02-10T17:14:28.303Z,97496.22
2019-02-10T17:16:56.345Z,97496.36
2019-02-10T17:19:24.406Z,97496.36
2019-02-10T17:21:56.159Z,97518.47
2019-02-10T17:24:26.822Z,97521.45
2019-02-10T17:26:55.633Z,97521.45
2019-02-10T17:29:24.413Z,97525.04
2019-02-10T17:31:52.364Z,97525.04
2019-02-10T17:34:22.008Z,97540.86
2019-02-10T17:36:50.076Z,97540.86
2019-02-10T17:39:24.239Z,97539.87
2019-02-10T17:41:54.390Z,97549.27
2019-02-10T17:44:26.220Z,97561.48
2019-02-10T17:46:51.786Z,97561.48
2019-02-10T17:49:21.507Z,97562.95
2019-02-10T17:51:49.179Z,97565.41
2019-02-10T17:54:21.200Z,97573.19
2019-02-10T17:56:46.470Z,97572.62
2019-02-10T17:59:18.604Z,97572.62
2019-02-10T18:01:43.855Z,97587.76
2019-02-10T18:04:13.457Z,97587.76
2019-02-10T18:06:41.186Z,97598.64
2019-02-10T18:09:09.238Z,97597.64
2019-02-10T18:11:41.309Z,97600.72
2019-02-10T18:14:23.621Z,97611.60
2019-02-10T18:17:08.929Z,97615.97
2019-02-10T18:20:01.687Z,97628.31
2019-02-10T18:22:57.261Z,97628.31
2019-02-10T18:25:50.201Z,97616.88
2019-02-10T18:28:32.637Z,97635.83
2019-02-10T18:31:22.214Z,97641.67
2019-02-10T18:34:09.746Z,97636.20
2019-02-10T18:37:00.280Z,97636.20
2019-02-10T18:40:00.593Z,97641.95
2019-02-10T18:43:00.999Z,97649.20
2019-02-10T18:45:35.317Z,97655.80
2019-02-10T18:48:23.400Z,97669.56
2019-02-10T18:51:00.260Z,97685.66
2019-02-10T18:53:52.774Z,97685.66
2019-02-10T18:56:45.358Z,97697.33
2019-02-10T18:59:48.102Z,97697.33
2019-02-10T19:02:27.477Z,97711.59
2019-02-10T19:05:06.435Z,97711.59
2019-02-10T19:08:02.400Z,97729.69
2019-02-10T19:10:49.625Z,97726.72
2019-02-10T19:13:45.731Z,97726.72
2019-02-10T19:16:25.568Z,97746.84
2019-02-10T19:21:40.950Z,97755.69
2019-02-10T19:24:27.470Z,97756.16
2019-02-10T19:27:15.885Z,97757.02
2019-02-10T19:30:02.337Z,97757.02
2019-02-10T19:32:51.567Z,97771.56
2019-02-10T19:35:39.748Z,97771.56
2019-02-10T19:38:30.465Z,97779.34
2019-02-10T19:41:32.351Z,97779.34
2019-02-10T19:44:05.181Z,97786.62
2019-02-10T19:46:55.966Z,97795.25
2019-02-10T19:49:42.466Z,97804.62
2019-02-10T19:52:31.627Z,97820.45
2019-02-10T19:58:23.292Z,97851.98
2019-02-10T20:01:09.832Z,97851.98
2019-02-10T20:04:08.682Z,97862.62
2019-02-10T20:06:44.460Z,97884.69
2019-02-10T20:09:30.952Z,97884.69
2019-02-10T20:12:17.453Z,97900.00
2019-02-10T20:15:04.414Z,97909.24
2019-02-10T20:17:53.572Z,97915.34
2019-02-10T20:20:40.529Z,97930.06
2019-02-10T20:23:27.923Z,97930.06
2019-02-10T20:26:14.458Z,97938.53
2019-02-10T20:32:17.930Z,97954.14
2019-02-10T20:34:54.261Z,97966.42
2019-02-10T20:37:42.612Z,97968.77
2019-02-10T20:40:28.949Z,97982.38
2019-02-10T20:46:20.594Z,97991.98
2019-02-10T20:49:07.128Z,98017.64
2019-02-10T20:51:53.644Z,98017.64
2019-02-10T20:54:40.173Z,98033.55
2019-02-10T20:57:26.719Z,98036.34
2019-02-10T21:00:13.178Z,98036.34
2019-02-10T21:02:59.701Z,98057.91
2019-02-10T21:05:46.213Z,98061.51
2019-02-10T21:08:32.661Z,98061.51
2019-02-10T21:11:19.170Z,98075.64
2019-02-10T21:14:05.678Z,98086.63
2019-02-10T21:16:52.134Z,98095.97
2019-02-10T21:22:35.207Z,98105.33
2019-02-10T21:25:23.936Z,98137.77
2019-02-10T21:28:10.444Z,98137.77
2019-02-10T21:30:57.297Z,98150.98
2019-02-10T21:33:43.778Z,98150.98
2019-02-10T21:36:30.320Z,98172.39
2019-02-10T21:39:26.212Z,98178.98
2019-02-10T21:45:04.116Z,98188.23
2019-02-10T21:47:50.619Z,98204.36
2019-02-10T21:50:37.101Z,98208.42
2019-02-10T21:53:04.894Z,98218.95
2019-02-10T21:55:51.388Z,98242.52
2019-02-10T21:58:19.154Z,98246.22
2019-02-10T22:01:08.165Z,98251.69
2019-02-10T22:03:54.693Z,98256.95
2019-02-10T22:06:41.149Z,98270.45
2019-02-10T22:09:39.124Z,98270.45
2019-02-10T22:14:33.134Z,98295.43
2019-02-10T22:17:15.801Z,98303.67
2019-02-10T22:19:33.743Z,98303.67
2019-02-10T22:22:20.249Z,98305.09
2019-02-10T22:25:06.728Z,98319.18
2019-02-10T22:27:53.235Z,98319.18
2019-02-10T22:30:23.184Z,98327.05
2019-02-10T22:32:54.592Z,98330.25
2019-02-10T22:35:30.865Z,98353.42
2019-02-10T22:37:58.758Z,98353.42
2019-02-10T22:40:46.843Z,98363.00
2019-02-10T22:43:33.819Z,98375.86
2019-02-10T22:46:01.400Z,98375.86
2019-02-10T22:49:00.020Z,98403.89
2019-02-10T22:51:17.370Z,98403.89
2019-02-10T22:56:50.388Z,98449.97
2019-02-10T22:59:18.179Z,98449.97
2019-02-10T23:02:04.608Z,98466.95
2019-02-10T23:04:51.046Z,98464.66
2019-02-10T23:10:10.683Z,98482.95
2019-02-10T23:12:57.394Z,98495.93
2019-02-10T23:15:25.337Z,98500.55
2019-02-10T23:17:53.196Z,98500.55
2019-02-10T23:20:20.885Z,98513.30
2019-02-10T23:23:07.318Z,98524.48
2019-02-10T23:25:53.786Z,98536.87
2019-02-10T23:30:55.621Z,98556.86
2019-02-10T23:36:28.568Z,98563.41
2019-02-10T23:44:35.541Z,98609.81
2019-02-10T23:47:34.047Z,98614.12
2019-02-10T23:50:10.159Z,98627.42
2019-02-10T23:53:08.822Z,98627.70
2019-02-10T23:58:33.417Z,98651.73
